KMDH Weather | Aviation | SIU

Home
Southern Illinois University

CONTACT

SIU.EDU

Aviation - Weather

College of Applied Sciences and Arts

KMDH Weather

NOTICE: Although all weather products are taken from the National Weather Service, this data should be used only as a supplement to a formal weather briefing.

Last Updated: Thursday, March 21st, 2019, 8:54 pm
Information on this page is updated every 5 minutes.


METARS

KMDH 220052Z 00000KT 10SM CLR 08/01 A3010 RMK AO2 SLP193 T00780006

KMDH 212352Z 34006KT 10SM CLR 09/01 A3009 RMK AO2 SLP192 T00940006 10111 20089

KMDH 212252Z 34012KT 10SM FEW048 11/01 A3008 RMK AO2 SLP188 T01110006

KMWA 220135Z AUTO 00000KT 10SM CLR 03/01 A3011 RMK AO2 T00340006

KMWA 220115Z AUTO 00000KT 10SM CLR 04/01 A3011 RMK AO2 T00410014

KMWA 220055Z AUTO 00000KT 10SM CLR 05/00 A3011 RMK AO2 T00540002

KMWA 220035Z AUTO 00000KT 10SM CLR 07/00 A3011 RMK AO2 T00660002

KMWA 220015Z AUTO 00000KT 10SM CLR 08/00 A3011 RMK AO2 T00790003

KMWA 212345Z 35008KT 10SM SCT047 09/00 A3010

KCGI 220053Z AUTO 01005KT 10SM CLR 09/01 A3010 RMK AO2 SLP193 T00890006

KCGI 212353Z AUTO 01007KT 10SM CLR 11/01 A3009 RMK AO2 SLP189 T01110011 10133

KCGI 212253Z AUTO 01012KT 10SM CLR 13/01 A3008 RMK AO2 SLP187 T01280006

KSAR 220115Z AUTO 00000KT 10SM CLR 09/01 A3011 RMK AO2 T00860010

KSAR 220055Z AUTO 32004KT 10SM CLR 09/01 A3011 RMK AO2 T00870010

KSAR 220035Z AUTO 32003KT 10SM CLR 09/01 A3011 RMK AO2 T00890011

KSAR 220015Z AUTO 32005KT 10SM CLR 09/01 A3011 RMK AO2 T00940013

KSAR 212355Z AUTO 32006KT 10SM CLR 10/01 A3011 RMK AO2 T01000014 10117 20088

KSAR 212335Z AUTO 32008KT 10SM CLR 11/02 A3010 RMK AO2 T01050015

KSAR 212315Z AUTO 30007KT 10SM CLR 11/02 A3010 RMK AO2 T01080016

KSAR 212255Z AUTO 32010G15KT 10SM CLR 11/01 A3009 RMK AO2 T01100013

KFAM 220056Z AUTO 33003KT 10SM CLR 09/M01 A3011 RMK AO2 SLP198 T00941006

KFAM 212356Z AUTO 33009KT 10SM CLR 11/M01 A3010 RMK AO2 SLP193 T01111006 10133

KMVN 220056Z AUTO 00000KT 10SM CLR 06/00 A3009 RMK AO2 SLP193 T00560000

KMVN 212356Z AUTO 00000KT 10SM FEW047 09/01 A3009 RMK AO2 SLP190 T00890006 10100

KMVN 212256Z AUTO VRB03KT 10SM BKN045 10/01 A3008 RMK AO2 SLP188 T01000006

KHSB 220135Z AUTO 00000KT 10SM CLR 05/02 A3010 RMK AO2 T00510020

KHSB 220115Z AUTO 00000KT 10SM CLR 06/02 A3010 RMK AO2 T00590017

KHSB 220055Z AUTO 30004KT 10SM CLR 06/02 A3010 RMK AO2 T00600019

KCIR 220135Z AUTO 00000KT 10SM CLR 09/00 A3011 RMK AO2 T00910001

KCIR 220115Z AUTO 00000KT 10SM CLR 08/02 A3011 RMK AO2 T00830018

KCIR 220055Z AUTO 36003KT 10SM CLR 09/01 A3010 RMK AO2 T00900007

KPAH 220053Z 03003KT 10SM CLR 08/M01 A3009 RMK AO2 SLP192 T00781006

KFAM 220056Z AUTO 33003KT 10SM CLR 09/M01 A3011 RMK AO2 SLP198 T00941006

KBLV 220056Z AUTO 29006KT 10SM CLR 07/M01 A3008 RMK AO2 SLP192 T00661006 $

KVIH 220053Z AUTO 29007KT 10SM CLR 09/M01 A3013 RMK AO2 SLP207 T00891011

KENL 220135Z AUTO 22003KT 10SM CLR 04/02 A3008 RMK AO2 T00410020

KENL 220115Z AUTO 00000KT 10SM CLR 07/02 A3008 RMK AO2 T00730019

KENL 220055Z AUTO 00000KT 10SM CLR 08/01 A3008 RMK AO2 T00800014

KMTO 220053Z AUTO 00000KT 10SM CLR 07/03 A3004 RMK AO2 SLP177 T00670028

KFWC 220135Z AUTO 00000KT 10SM CLR 06/02 A3008 RMK AO1 T00570020

KFWC 220115Z AUTO 00000KT 10SM SCT046 07/02 A3008 RMK AO1 T00650020

KFWC 220055Z AUTO 00000KT 10SM OVC046 07/02 A3008 RMK AO1 T00720015

KCUL 220138Z AUTO 00000KT 10SM OVC046 05/03 A3009 RMK AO2

KCUL 220116Z AUTO 00000KT 10SM OVC046 06/03 A3009 RMK AO2

KCUL 220057Z AUTO 00000KT 10SM OVC046 06/03 A3009 RMK AO2

KEVV 220054Z 29003KT 10SM OVC044 07/02 A3009 RMK AO2 SLP192 T00670017

KCEY 220135Z AUTO 36003KT 10SM CLR 07/00 A3011 RMK AO1

KCEY 220115Z AUTO 36003KT 10SM CLR 07/00 A3010 RMK AO1

KCEY 220055Z AUTO 33004KT 10SM CLR 07/00 A3010 RMK AO1

KHOP 220056Z AUTO 00000KT 10SM OVC044 07/00 A3010 RMK AO2 SLP197 T00710003

KARG 220056Z AUTO 33007KT 10SM CLR 11/02 A3011 RMK AO2 SLP198 T01060022

KJBR 220053Z AUTO 00000KT 10SM CLR 12/02 A3010 RMK AO2 SLP194 T01220017 $

KALN 220050Z 28010KT 10SM SKC 07/02 A3009

KALN 220050Z 28010KT 10SM SKC 07/02 A3009

KCOU 220054Z 29004KT 10SM CLR 09/M01 A3013 RMK AO2 SLP206 T00941011

KAJG 220115Z AUTO 00000KT 10SM BKN043 05/02 A3008 RMK AO2 T00500015

KAJG 220055Z AUTO 30005KT 10SM SCT041 05/02 A3008 RMK AO2 T00540018

KM30 220135Z AUTO 00000KT 10SM CLR 06/00 A3012 RMK AO2 T00550003

KM30 220115Z AUTO 00000KT 10SM CLR 06/01 A3012 RMK AO2 T00580005

KM30 220055Z AUTO 00000KT 10SM CLR 07/00 A3011 RMK AO2 T00710000

KDEC 220054Z 31005KT 10SM CLR 07/M01 A3005 RMK AO2 SLP178 T00671006

KIJX 220115Z AUTO 27004KT 10SM CLR 06/00 A3008 RMK AO2 T00570000

KIJX 220055Z AUTO 28006KT 10SM CLR 06/00 A3007 RMK AO2 T00550000


TAFS

KEVV 212320Z 2200/2224 30008KT P6SM BKN035

        FM220300 29007KT P6SM SCT040

        TEMPO 2203/2206 BKN040

        FM220600 27005KT P6SM SKC

        FM221200 29008KT P6SM SCT020

        FM221500 32012G20KT P6SM BKN025


Winds Aloft



Pilot Reports

No pilot reports found for area.



Area Forecast



Significant Weather

WSUS32 KKCI 212355 SIGC CONVECTIVE SIGMET...NONE OUTLOOK VALID 220155-220555 TS ARE NOT EXPD TO REQUIRE WST ISSUANCES.
WSUS32 KKCI 220055 SIGC CONVECTIVE SIGMET...NONE OUTLOOK VALID 220255-220655 TS ARE NOT EXPD TO REQUIRE WST ISSUANCES.